Granby Center, New York
Current Conditions -  °F | °C
As of 9:54 AM on Wednesday 22 Oct 2014 (Local Time) from KFZY Reporting Station
Broken Clouds Broken Clouds  
Wind Chill: 44°   Ceiling: 4800
Heat Index: 48°   Visibility: 10mi
Dew Point: 42°   Wind: 8mph
Humidity: 80%   Direction: 360°N
Pressure: 30.17"   Gusts: NA
Location:  43.3608°N, 76.3536°W
Report Text: KFZY 221354Z AUTO 36007KT 10SM FEW011 BKN048 BKN070 09/06 A3017 RMK AO2 SLP218 T00890056
Loading
Personal Weather Stations






























Interactive Weather Map
Tropical Storm Tracking
New forecast layout! Learn more

10-Day Weather Forecast

Advertisements
Track Severe Weather on mobile